createdAt,value
2019-02-04T00:09:54.149Z,4.2
2019-02-04T00:19:57.622Z,4.1
2019-02-04T00:30:01.114Z,4
2019-02-04T00:40:06.676Z,3.9
2019-02-04T00:50:10.163Z,3.9
2019-02-04T01:00:13.709Z,4
2019-02-04T01:10:17.116Z,4
2019-02-04T01:20:20.558Z,3.9
2019-02-04T01:30:24.017Z,4
2019-02-04T01:40:27.469Z,4
2019-02-04T01:50:30.920Z,3.9
2019-02-04T02:00:34.345Z,3.9
2019-02-04T02:10:37.789Z,4
2019-02-04T02:20:41.238Z,4
2019-02-04T02:30:44.698Z,3.8
2019-02-04T02:40:48.159Z,3.7
2019-02-04T02:50:51.615Z,3.8
2019-02-04T03:00:56.183Z,3.6
2019-02-04T03:10:59.630Z,3.6
2019-02-04T03:21:03.123Z,3.3
2019-02-04T03:31:06.582Z,3
2019-02-04T03:41:10.054Z,2.8
2019-02-04T03:51:13.538Z,2.5
2019-02-04T04:01:16.988Z,2.7
2019-02-04T04:11:20.439Z,2.6
2019-02-04T04:21:23.847Z,2.4
2019-02-04T04:31:27.261Z,2.6
2019-02-04T04:41:30.776Z,2.4
2019-02-04T04:51:34.359Z,2.3
2019-02-04T05:01:37.841Z,2.4
2019-02-04T05:11:41.310Z,2.4
2019-02-04T05:21:46.052Z,2.1
2019-02-04T05:31:49.509Z,2
2019-02-04T05:41:52.970Z,1.8
2019-02-04T05:51:56.428Z,1.8
2019-02-04T06:01:59.916Z,1.5
2019-02-04T06:12:03.399Z,1.4
2019-02-04T06:22:06.832Z,1.3
2019-02-04T06:32:10.397Z,1.5
2019-02-04T06:42:13.871Z,1.4
2019-02-04T06:52:17.599Z,1.2
2019-02-04T07:02:21.063Z,1.3
2019-02-04T07:12:24.532Z,1.2
2019-02-04T07:22:27.993Z,1.5
2019-02-04T07:32:31.447Z,1.5
2019-02-04T07:42:34.970Z,1.7
2019-02-04T07:52:38.400Z,1.9
2019-02-04T08:02:41.867Z,1.9
2019-02-04T08:12:45.317Z,1.9
2019-02-04T08:22:48.738Z,1.8
2019-02-04T08:32:52.199Z,1.8
2019-02-04T08:42:55.673Z,2.3
2019-02-04T08:52:59.140Z,4.2
2019-02-04T09:03:02.620Z,5
2019-02-04T09:13:06.106Z,5.5
2019-02-04T09:23:09.606Z,5.9
2019-02-04T09:33:13.046Z,6.2
2019-02-04T09:43:16.655Z,6.3
2019-02-04T09:53:20.085Z,6.6
2019-02-04T10:03:23.531Z,6.7
2019-02-04T10:13:26.986Z,6.8
2019-02-04T10:23:30.433Z,7
2019-02-04T10:33:33.932Z,6.5
2019-02-04T10:43:37.558Z,6.2
2019-02-04T10:53:42.191Z,5.8
2019-02-04T11:03:46.807Z,5.8
2019-02-04T11:13:50.372Z,5.8
2019-02-04T11:23:53.979Z,5.5
2019-02-04T11:33:57.638Z,5.8
2019-02-04T11:44:01.256Z,5.9
2019-02-04T11:54:04.857Z,6.1
2019-02-04T12:04:08.319Z,6.1
2019-02-04T12:14:11.774Z,6
2019-02-04T12:24:15.230Z,6.2
2019-02-04T12:34:19.880Z,5.8
2019-02-04T12:44:23.302Z,5.8
2019-02-04T12:54:26.858Z,6.1
2019-02-04T13:04:30.368Z,6.2
2019-02-04T13:14:34.655Z,5.8
2019-02-04T13:24:38.063Z,5.9
2019-02-04T13:34:41.492Z,5.9
2019-02-04T13:44:44.977Z,6.1
2019-02-04T13:54:48.481Z,6
2019-02-04T14:04:52.087Z,6.1
2019-02-04T14:14:55.664Z,6.2
2019-02-04T14:24:59.118Z,6
2019-02-04T14:35:02.573Z,6
2019-02-04T14:45:06.025Z,6
2019-02-04T14:55:09.509Z,5.8
2019-02-04T15:05:13.082Z,5.7
2019-02-04T15:15:16.538Z,5.8
2019-02-04T15:25:19.990Z,5.7
2019-02-04T15:35:23.449Z,5.9
2019-02-04T15:45:27.964Z,5.8
2019-02-04T15:55:31.403Z,5.6
2019-02-04T16:05:34.822Z,5.5
2019-02-04T16:15:38.244Z,5.4
2019-02-04T16:25:41.714Z,5.2
2019-02-04T16:35:45.154Z,5.1
2019-02-04T16:45:48.629Z,5
2019-02-04T16:55:52.027Z,4.8
2019-02-04T17:05:55.518Z,4.7
2019-02-04T17:15:58.969Z,4.6
2019-02-04T17:26:02.441Z,4.5
2019-02-04T17:36:05.904Z,4.4
2019-02-04T17:46:09.385Z,4.3
2019-02-04T17:56:12.798Z,4.4
2019-02-04T18:06:16.256Z,4.5
2019-02-04T18:16:19.732Z,4.5
2019-02-04T18:26:23.288Z,4.4
2019-02-04T18:36:30.423Z,4.3
2019-02-04T18:46:35.166Z,4.4
2019-02-04T18:56:38.608Z,4.4
2019-02-04T19:06:47.530Z,4.4
2019-02-04T19:16:51.569Z,4.5
2019-02-04T19:26:55.041Z,4.5
2019-02-04T19:36:58.500Z,4.4
2019-02-04T19:47:01.958Z,4.5
2019-02-04T19:57:05.406Z,4.4
2019-02-04T20:07:08.842Z,4.5
2019-02-04T20:17:12.289Z,4.5
2019-02-04T20:27:15.879Z,4.6
2019-02-04T20:37:19.345Z,4.5
2019-02-04T20:47:22.818Z,4.5
2019-02-04T20:57:26.276Z,4.4
2019-02-04T21:07:29.739Z,4.4
2019-02-04T21:17:33.176Z,4.3
2019-02-04T21:27:37.593Z,4.4
2019-02-04T21:37:42.258Z,4.3
2019-02-04T21:47:45.668Z,4.4
2019-02-04T21:57:49.131Z,4.4
2019-02-04T22:07:52.546Z,4.3
2019-02-04T22:17:56.027Z,4.3
2019-02-04T22:27:59.482Z,4.3
2019-02-04T22:38:02.976Z,4.2
2019-02-04T22:48:06.423Z,4.2
2019-02-04T22:58:09.871Z,4.2
2019-02-04T23:08:13.298Z,4.2
2019-02-04T23:18:16.757Z,4.3
2019-02-04T23:28:20.239Z,4.3
2019-02-04T23:38:24.453Z,4.2
2019-02-04T23:48:28.001Z,4.1
2019-02-04T23:58:31.438Z,4.1
